createdAt,value
2022-11-23T00:13:25.734Z,100.00
2022-11-23T00:15:53.032Z,100.00
2022-11-23T00:18:20.222Z,100.00
2022-11-23T00:20:47.567Z,100.00
2022-11-23T00:23:14.746Z,100.00
2022-11-23T00:25:45.849Z,100.00
2022-11-23T00:28:13.232Z,100.00
2022-11-23T00:30:40.607Z,100.00
2022-11-23T00:33:07.880Z,100.00
2022-11-23T00:35:35.405Z,100.00
2022-11-23T00:38:02.616Z,100.00
2022-11-23T00:40:29.957Z,100.00
2022-11-23T00:42:57.015Z,100.00
2022-11-23T00:45:24.169Z,100.00
2022-11-23T00:47:53.094Z,100.00
2022-11-23T00:50:22.554Z,100.00
2022-11-23T00:52:51.316Z,100.00
2022-11-23T00:55:18.954Z,100.00
2022-11-23T00:57:46.271Z,100.00
2022-11-23T01:00:13.916Z,100.00
2022-11-23T01:02:41.288Z,100.00
2022-11-23T01:05:08.787Z,100.00
2022-11-23T01:07:36.214Z,100.00
2022-11-23T01:10:04.206Z,100.00
2022-11-23T01:12:33.538Z,100.00
2022-11-23T01:15:00.930Z,100.00
2022-11-23T01:17:29.241Z,100.00
2022-11-23T01:19:56.290Z,100.00
2022-11-23T01:22:23.484Z,100.00
2022-11-23T01:24:51.106Z,100.00
2022-11-23T01:27:18.229Z,100.00
2022-11-23T01:29:45.727Z,100.00
2022-11-23T01:32:12.952Z,100.00
2022-11-23T01:34:40.165Z,100.00
2022-11-23T01:37:07.516Z,100.00
2022-11-23T01:39:34.873Z,100.00
2022-11-23T01:42:02.240Z,100.00
2022-11-23T01:44:31.895Z,100.00
2022-11-23T01:47:01.370Z,100.00
2022-11-23T01:49:36.025Z,99.90
2022-11-23T01:52:16.010Z,100.00
2022-11-23T01:54:53.774Z,100.00
2022-11-23T01:57:36.667Z,99.95
2022-11-23T02:00:05.274Z,99.98
2022-11-23T02:02:44.901Z,99.89
2022-11-23T02:05:14.981Z,99.47
2022-11-23T02:07:46.173Z,99.54
2022-11-23T02:10:15.978Z,99.52
2022-11-23T02:12:43.153Z,99.25
2022-11-23T02:15:12.633Z,99.17
2022-11-23T02:17:42.290Z,99.03
2022-11-23T02:20:16.164Z,98.98
2022-11-23T02:22:57.519Z,98.99
2022-11-23T02:25:45.569Z,98.91
2022-11-23T02:28:17.362Z,98.77
2022-11-23T02:30:47.489Z,98.75
2022-11-23T02:33:14.776Z,98.33
2022-11-23T02:36:15.061Z,98.38
2022-11-23T02:38:42.428Z,97.89
2022-11-23T02:41:09.657Z,97.79
2022-11-23T02:43:37.822Z,97.45
2022-11-23T02:46:05.569Z,97.58
2022-11-23T02:48:32.932Z,97.14
2022-11-23T02:51:03.334Z,96.83
2022-11-23T02:53:31.930Z,96.96
2022-11-23T02:55:59.011Z,97.01
2022-11-23T02:58:26.904Z,97.18
2022-11-23T03:00:54.229Z,96.95
2022-11-23T03:03:23.064Z,97.64
2022-11-23T03:05:49.940Z,97.42
2022-11-23T03:08:17.483Z,97.19
2022-11-23T03:10:44.842Z,97.14
2022-11-23T03:13:12.096Z,97.30
2022-11-23T03:15:40.703Z,97.46
2022-11-23T03:18:09.129Z,97.38
2022-11-23T03:20:36.289Z,97.21
2022-11-23T03:23:04.862Z,97.10
2022-11-23T03:25:32.738Z,97.38
2022-11-23T03:27:59.772Z,97.29
2022-11-23T03:30:27.645Z,97.16
2022-11-23T03:32:54.855Z,96.85
2022-11-23T03:35:23.187Z,96.93
2022-11-23T03:38:15.161Z,97.11
2022-11-23T03:40:45.849Z,96.93
2022-11-23T03:43:19.828Z,97.14
2022-11-23T03:45:47.494Z,97.11
2022-11-23T03:48:15.348Z,97.00
2022-11-23T03:50:44.030Z,96.87
2022-11-23T03:53:11.544Z,96.88
2022-11-23T03:55:38.778Z,97.05
2022-11-23T03:58:06.009Z,97.05
2022-11-23T04:00:35.618Z,96.54
2022-11-23T04:03:03.572Z,96.57
2022-11-23T04:05:49.457Z,97.02
2022-11-23T04:08:36.388Z,96.63
2022-11-23T04:11:08.999Z,96.65
2022-11-23T04:13:38.510Z,96.69
2022-11-23T04:16:07.412Z,96.72
2022-11-23T04:18:34.860Z,96.67
2022-11-23T04:21:01.972Z,96.64
2022-11-23T04:23:29.147Z,96.63
2022-11-23T04:25:56.554Z,96.50
2022-11-23T04:28:24.422Z,96.44
2022-11-23T04:30:53.194Z,96.49
2022-11-23T04:33:20.139Z,96.29
2022-11-23T04:35:47.328Z,96.33
2022-11-23T04:38:15.004Z,96.41
2022-11-23T04:40:43.254Z,96.46
2022-11-23T04:43:10.952Z,96.03
2022-11-23T04:45:40.789Z,96.00
2022-11-23T04:48:14.047Z,95.86
2022-11-23T04:50:46.498Z,95.70
2022-11-23T04:53:17.977Z,95.79
2022-11-23T04:55:47.688Z,95.71
2022-11-23T04:58:16.370Z,95.92
2022-11-23T05:00:43.447Z,95.89
2022-11-23T05:03:12.661Z,95.72
2022-11-23T05:05:42.024Z,95.47
2022-11-23T05:08:10.184Z,95.60
2022-11-23T05:10:57.909Z,95.60
2022-11-23T05:13:26.368Z,95.52
2022-11-23T05:15:53.869Z,95.13
2022-11-23T05:18:26.047Z,95.40
2022-11-23T05:20:53.806Z,95.30
2022-11-23T05:23:21.496Z,95.28
2022-11-23T05:25:50.473Z,95.07
2022-11-23T05:28:39.671Z,95.52
2022-11-23T05:31:09.751Z,95.58
2022-11-23T05:33:37.555Z,95.42
2022-11-23T05:36:06.683Z,95.12
2022-11-23T05:38:37.824Z,95.17
2022-11-23T05:41:11.532Z,95.04
2022-11-23T05:43:41.890Z,94.98
2022-11-23T05:46:12.471Z,95.10
2022-11-23T05:48:39.994Z,94.87
2022-11-23T05:51:11.738Z,94.89
2022-11-23T05:53:44.850Z,95.11
2022-11-23T05:56:18.778Z,95.06
2022-11-23T05:59:08.409Z,94.97
2022-11-23T06:01:38.140Z,94.72
2022-11-23T06:04:07.668Z,94.70
2022-11-23T06:06:42.108Z,94.63
2022-11-23T06:09:10.289Z,94.32
2022-11-23T06:11:40.011Z,94.03
2022-11-23T06:14:14.396Z,93.91
2022-11-23T06:16:44.174Z,94.21
2022-11-23T06:19:43.908Z,94.54
2022-11-23T06:22:12.617Z,94.43
2022-11-23T06:24:54.742Z,94.31
2022-11-23T06:27:40.649Z,94.57
2022-11-23T06:30:16.244Z,94.66
2022-11-23T06:32:43.736Z,94.39
2022-11-23T06:35:10.691Z,94.09
2022-11-23T06:37:40.506Z,94.08
2022-11-23T06:40:08.383Z,94.14
2022-11-23T06:42:39.973Z,94.73
2022-11-23T06:45:15.124Z,95.19
2022-11-23T06:47:43.912Z,95.11
2022-11-23T06:50:11.560Z,95.56
2022-11-23T06:52:39.158Z,95.65
2022-11-23T06:55:06.443Z,96.17
2022-11-23T06:57:34.508Z,95.79
2022-11-23T07:00:02.532Z,95.96
2022-11-23T07:02:34.667Z,95.64
2022-11-23T07:05:01.767Z,95.86
2022-11-23T07:07:30.901Z,95.15
2022-11-23T07:10:08.823Z,95.47
2022-11-23T07:12:44.319Z,95.74
2022-11-23T07:15:14.052Z,96.44
2022-11-23T07:17:42.318Z,96.15
2022-11-23T07:20:12.693Z,96.25
2022-11-23T07:22:40.452Z,96.12
2022-11-23T07:25:08.457Z,96.02
2022-11-23T07:27:35.462Z,95.98
2022-11-23T07:30:03.590Z,95.64
2022-11-23T07:32:30.871Z,95.31
2022-11-23T07:34:57.901Z,94.79
2022-11-23T07:37:26.305Z,94.55
2022-11-23T07:39:58.139Z,94.48
2022-11-23T07:42:36.955Z,94.32
2022-11-23T07:45:09.494Z,94.30
2022-11-23T07:47:38.770Z,94.45
2022-11-23T07:50:10.880Z,94.13
2022-11-23T07:52:38.842Z,94.44
2022-11-23T07:55:06.564Z,93.97
2022-11-23T07:57:33.656Z,93.44
2022-11-23T08:00:00.895Z,93.61
2022-11-23T08:02:28.303Z,93.32
2022-11-23T08:04:55.767Z,93.55
2022-11-23T08:07:22.693Z,93.24
2022-11-23T08:09:50.645Z,93.00
2022-11-23T08:12:17.552Z,92.25
2022-11-23T08:14:44.601Z,92.33
2022-11-23T08:17:11.544Z,92.00
2022-11-23T08:19:38.524Z,92.31
2022-11-23T08:22:05.510Z,92.54
2022-11-23T08:24:33.117Z,92.87
2022-11-23T08:27:00.592Z,92.51
2022-11-23T08:29:28.106Z,92.18
2022-11-23T08:31:55.183Z,92.20
2022-11-23T08:34:22.324Z,92.48
2022-11-23T08:36:49.255Z,93.03
2022-11-23T08:39:18.439Z,93.18
2022-11-23T08:41:45.981Z,93.13
2022-11-23T08:44:13.005Z,92.39
2022-11-23T08:46:40.011Z,92.15
2022-11-23T08:49:07.506Z,91.89
2022-11-23T08:51:34.695Z,91.64
2022-11-23T08:54:01.939Z,90.67
2022-11-23T08:56:29.354Z,90.38
2022-11-23T08:58:56.325Z,89.81
2022-11-23T09:01:23.624Z,90.20
2022-11-23T09:03:50.722Z,90.47
2022-11-23T09:06:17.740Z,88.71
2022-11-23T09:08:44.621Z,88.92
2022-11-23T09:11:14.338Z,88.29
2022-11-23T09:13:41.549Z,86.40
2022-11-23T09:16:08.920Z,84.43
2022-11-23T09:18:36.790Z,83.17
2022-11-23T09:21:05.777Z,83.55
2022-11-23T09:23:32.795Z,83.46
2022-11-23T09:26:00.650Z,84.14
2022-11-23T09:28:28.648Z,84.56
2022-11-23T09:30:56.972Z,85.00
2022-11-23T09:33:26.123Z,85.39
2022-11-23T09:36:04.236Z,86.37
2022-11-23T09:38:55.581Z,87.09
2022-11-23T09:41:30.807Z,87.51
2022-11-23T09:44:08.144Z,87.91
2022-11-23T09:47:01.400Z,87.83
2022-11-23T09:49:33.560Z,86.98
2022-11-23T09:52:00.833Z,85.68
2022-11-23T09:54:36.648Z,84.67
2022-11-23T09:57:05.062Z,85.65
2022-11-23T09:59:57.663Z,84.93
2022-11-23T10:02:28.977Z,84.14
2022-11-23T10:04:58.065Z,83.92
2022-11-23T10:07:40.831Z,83.25
2022-11-23T10:10:22.909Z,82.79
2022-11-23T10:12:56.102Z,82.96
2022-11-23T10:15:38.350Z,82.82
2022-11-23T10:18:20.279Z,82.04
2022-11-23T10:20:53.466Z,81.96
2022-11-23T10:23:46.713Z,82.38
2022-11-23T10:26:17.445Z,82.65
2022-11-23T10:28:46.507Z,81.86
2022-11-23T10:31:16.151Z,82.51
2022-11-23T10:34:11.876Z,82.19
2022-11-23T10:36:40.161Z,82.22
2022-11-23T10:39:27.705Z,82.81
2022-11-23T10:42:03.623Z,83.08
2022-11-23T10:44:37.060Z,82.57
2022-11-23T10:47:05.619Z,82.90
2022-11-23T10:49:34.654Z,83.05
2022-11-23T10:52:26.158Z,81.22
2022-11-23T10:54:55.526Z,80.87
2022-11-23T10:57:28.471Z,81.46
2022-11-23T11:00:14.825Z,82.04
2022-11-23T11:02:41.938Z,82.36
2022-11-23T11:06:08.709Z,82.18
2022-11-23T11:08:34.869Z,82.06
2022-11-23T11:11:21.539Z,82.48
2022-11-23T11:13:49.972Z,81.07
2022-11-23T11:16:35.726Z,80.94
2022-11-23T11:19:28.532Z,81.46
2022-11-23T11:21:57.065Z,81.98
2022-11-23T11:24:33.935Z,81.19
2022-11-23T11:27:12.110Z,81.51
2022-11-23T11:29:45.348Z,81.98
2022-11-23T11:32:19.849Z,81.27
2022-11-23T11:34:52.648Z,81.40
2022-11-23T11:37:22.888Z,80.76
2022-11-23T11:39:58.171Z,79.74
2022-11-23T11:42:36.832Z,79.89
2022-11-23T11:45:07.242Z,78.74
2022-11-23T11:47:42.904Z,78.83
2022-11-23T11:50:32.050Z,78.20
2022-11-23T11:53:14.760Z,78.44
2022-11-23T11:55:47.780Z,78.41
2022-11-23T11:58:17.359Z,78.31
2022-11-23T12:00:47.885Z,78.67
2022-11-23T12:03:15.089Z,78.67
2022-11-23T12:05:42.258Z,78.84
2022-11-23T12:08:15.676Z,78.47
2022-11-23T12:16:31.283Z,78.46
2022-11-23T12:19:19.170Z,79.28
2022-11-23T12:22:08.478Z,79.00
2022-11-23T17:02:29.476Z,100.00
2022-11-23T17:04:56.994Z,100.00
2022-11-23T17:07:24.222Z,100.00
2022-11-23T17:09:51.482Z,100.00
2022-11-23T17:12:20.613Z,100.00
2022-11-23T17:14:49.875Z,100.00
2022-11-23T17:17:23.291Z,100.00
2022-11-23T17:19:52.834Z,100.00
2022-11-23T17:22:20.584Z,100.00
2022-11-23T17:24:49.600Z,100.00
2022-11-23T17:27:21.996Z,100.00
2022-11-23T17:29:55.969Z,100.00
2022-11-23T17:32:23.130Z,100.00
2022-11-23T17:34:50.220Z,100.00
2022-11-23T17:37:24.376Z,100.00
2022-11-23T17:39:51.479Z,100.00
2022-11-23T17:42:19.030Z,100.00
2022-11-23T17:44:46.922Z,100.00
2022-11-23T17:47:28.934Z,100.00
2022-11-23T17:49:56.919Z,100.00
2022-11-23T17:52:24.916Z,100.00
2022-11-23T17:54:52.365Z,100.00
2022-11-23T17:57:23.661Z,100.00
2022-11-23T17:59:51.147Z,100.00
2022-11-23T18:02:19.613Z,100.00
2022-11-23T18:04:47.959Z,100.00
2022-11-23T18:07:16.409Z,100.00
2022-11-23T18:09:43.679Z,100.00
2022-11-23T18:12:11.246Z,100.00
2022-11-23T18:14:38.899Z,100.00
2022-11-23T18:17:06.328Z,100.00
2022-11-23T18:19:33.896Z,100.00
2022-11-23T18:22:01.145Z,100.00
2022-11-23T18:24:28.302Z,100.00
2022-11-23T18:26:55.464Z,100.00
2022-11-23T18:29:22.612Z,100.00
2022-11-23T18:31:49.787Z,100.00
2022-11-23T18:34:16.880Z,100.00
2022-11-23T18:36:44.161Z,100.00
2022-11-23T18:39:11.353Z,100.00
2022-11-23T18:41:38.318Z,100.00
2022-11-23T18:44:05.620Z,100.00
2022-11-23T18:46:33.362Z,100.00
2022-11-23T18:49:00.512Z,100.00
2022-11-23T18:51:27.770Z,100.00
2022-11-23T18:53:55.760Z,100.00
2022-11-23T18:56:23.040Z,100.00
2022-11-23T18:58:50.351Z,100.00
2022-11-23T19:01:22.965Z,100.00
2022-11-23T19:03:52.905Z,100.00
2022-11-23T19:06:22.601Z,100.00
2022-11-23T19:08:53.674Z,100.00
2022-11-23T19:11:23.506Z,100.00
2022-11-23T19:13:56.282Z,100.00
2022-11-23T19:16:24.490Z,100.00
2022-11-23T19:18:55.933Z,100.00
2022-11-23T19:21:24.970Z,100.00
2022-11-23T19:23:54.190Z,100.00
2022-11-23T19:26:21.783Z,100.00
2022-11-23T19:28:48.629Z,100.00
2022-11-23T19:31:15.800Z,100.00
2022-11-23T19:33:44.582Z,100.00
2022-11-23T19:36:14.866Z,100.00
2022-11-23T19:38:42.291Z,100.00
2022-11-23T19:41:11.022Z,100.00
2022-11-23T19:43:38.364Z,100.00
2022-11-23T19:46:07.174Z,100.00
2022-11-23T19:48:34.541Z,100.00
2022-11-23T19:51:04.448Z,100.00
2022-11-23T19:53:36.450Z,100.00
2022-11-23T19:56:14.424Z,100.00
2022-11-23T19:58:42.390Z,100.00
2022-11-23T20:01:17.193Z,100.00
2022-11-23T20:03:48.946Z,100.00
2022-11-23T20:06:26.307Z,100.00
2022-11-23T20:08:58.393Z,100.00
2022-11-23T20:11:27.392Z,100.00
2022-11-23T20:13:55.295Z,100.00
2022-11-23T20:16:23.872Z,100.00
2022-11-23T20:18:57.035Z,100.00
2022-11-23T20:21:24.799Z,100.00
2022-11-23T20:24:04.375Z,100.00
2022-11-23T20:26:34.211Z,100.00
2022-11-23T20:29:01.276Z,100.00
2022-11-23T20:31:30.382Z,100.00
2022-11-23T20:33:57.671Z,100.00
2022-11-23T20:36:30.443Z,100.00
2022-11-23T20:38:58.470Z,100.00
2022-11-23T20:41:31.354Z,100.00
2022-11-23T20:44:07.098Z,100.00
2022-11-23T20:49:22.062Z,100.00
2022-11-23T20:51:48.882Z,100.00
2022-11-23T20:54:15.896Z,100.00
2022-11-23T20:56:42.993Z,100.00
2022-11-23T20:59:12.441Z,100.00
2022-11-23T21:01:42.201Z,100.00
2022-11-23T21:04:11.237Z,100.00
2022-11-23T21:06:39.806Z,100.00
2022-11-23T21:09:09.068Z,100.00
2022-11-23T21:12:08.608Z,100.00
2022-11-23T21:14:35.858Z,100.00
2022-11-23T21:17:03.050Z,100.00
2022-11-23T21:19:41.856Z,100.00
2022-11-23T21:22:11.112Z,100.00
2022-11-23T21:24:38.301Z,100.00
2022-11-23T21:27:07.622Z,100.00
2022-11-23T21:29:34.894Z,100.00
2022-11-23T21:32:01.801Z,100.00
2022-11-23T21:34:30.105Z,100.00
2022-11-23T21:36:58.019Z,100.00
2022-11-23T21:39:25.326Z,100.00
2022-11-23T21:41:54.133Z,100.00
2022-11-23T21:44:22.980Z,100.00
2022-11-23T21:46:50.775Z,100.00
2022-11-23T21:49:17.703Z,100.00
2022-11-23T21:51:45.906Z,100.00
2022-11-23T21:54:16.652Z,100.00
2022-11-23T21:56:46.876Z,100.00
2022-11-23T21:59:14.159Z,100.00
2022-11-23T22:01:58.718Z,100.00
2022-11-23T22:04:26.477Z,100.00
2022-11-23T22:06:53.647Z,100.00
2022-11-23T22:09:20.770Z,100.00
2022-11-23T22:11:47.847Z,100.00
2022-11-23T22:14:16.546Z,100.00
2022-11-23T22:16:56.920Z,100.00
2022-11-23T22:19:23.977Z,100.00
2022-11-23T22:21:50.986Z,100.00
2022-11-23T22:24:19.616Z,100.00
2022-11-23T22:26:48.025Z,100.00
2022-11-23T22:29:15.904Z,100.00
2022-11-23T22:31:43.891Z,100.00
2022-11-23T22:34:13.411Z,100.00
2022-11-23T22:36:41.017Z,100.00
2022-11-23T22:39:08.918Z,100.00
2022-11-23T22:41:37.372Z,100.00
2022-11-23T22:44:07.777Z,100.00
2022-11-23T22:46:35.842Z,100.00
2022-11-23T22:49:03.164Z,100.00
2022-11-23T22:51:30.369Z,100.00
2022-11-23T22:53:59.754Z,100.00
2022-11-23T22:56:28.172Z,100.00
2022-11-23T22:58:55.285Z,100.00
2022-11-23T23:01:26.571Z,100.00
2022-11-23T23:03:55.877Z,100.00
2022-11-23T23:06:25.582Z,100.00
2022-11-23T23:08:56.162Z,100.00
2022-11-23T23:11:24.124Z,100.00
2022-11-23T23:13:51.189Z,100.00
2022-11-23T23:16:18.950Z,100.00
2022-11-23T23:18:46.074Z,100.00
2022-11-23T23:21:15.673Z,100.00
2022-11-23T23:23:45.126Z,100.00
2022-11-23T23:26:13.779Z,100.00
2022-11-23T23:28:41.303Z,100.00
2022-11-23T23:31:11.005Z,100.00
2022-11-23T23:33:38.421Z,100.00
2022-11-23T23:36:05.800Z,100.00
2022-11-23T23:38:33.129Z,100.00
2022-11-23T23:41:01.092Z,100.00
2022-11-23T23:43:29.283Z,100.00
2022-11-23T23:46:01.074Z,100.00
2022-11-23T23:48:34.042Z,100.00
2022-11-23T23:51:14.596Z,100.00
2022-11-23T23:53:42.201Z,100.00
2022-11-23T23:56:16.717Z,100.00
2022-11-23T23:58:44.200Z,100.00
